createdAt,value
2019-05-03T00:01:00.063Z,100.00
2019-05-03T00:03:29.224Z,100.00
2019-05-03T00:06:02.272Z,100.00
2019-05-03T00:08:33.336Z,100.00
2019-05-03T00:11:02.479Z,100.00
2019-05-03T00:13:32.500Z,100.00
2019-05-03T00:16:08.472Z,100.00
2019-05-03T00:18:37.708Z,100.00
2019-05-03T00:21:06.902Z,100.00
2019-05-03T00:23:36.040Z,100.00
2019-05-03T00:26:05.454Z,100.00
2019-05-03T00:28:34.618Z,100.00
2019-05-03T00:31:03.999Z,100.00
2019-05-03T00:33:33.228Z,100.00
2019-05-03T00:36:24.399Z,100.00
2019-05-03T00:38:56.905Z,100.00
2019-05-03T00:41:26.123Z,100.00
2019-05-03T00:43:55.536Z,100.00
2019-05-03T00:46:24.719Z,100.00
2019-05-03T00:48:53.849Z,100.00
2019-05-03T00:51:23.013Z,100.00
2019-05-03T00:53:53.113Z,100.00
2019-05-03T00:56:22.386Z,100.00
2019-05-03T00:58:58.400Z,100.00
2019-05-03T01:01:27.589Z,100.00
2019-05-03T01:03:56.757Z,100.00
2019-05-03T01:06:26.221Z,100.00
2019-05-03T01:08:55.366Z,100.00
2019-05-03T01:11:24.529Z,100.00
2019-05-03T01:13:53.658Z,100.00
2019-05-03T01:16:23.518Z,100.00
2019-05-03T01:18:52.656Z,100.00
2019-05-03T01:21:22.597Z,100.00
2019-05-03T01:23:52.631Z,100.00
2019-05-03T01:26:22.745Z,100.00
2019-05-03T01:28:52.402Z,100.00
2019-05-03T01:31:22.850Z,100.00
2019-05-03T01:33:52.482Z,100.00
2019-05-03T01:36:22.771Z,100.00
2019-05-03T01:38:52.878Z,100.00
2019-05-03T01:41:22.382Z,100.00
2019-05-03T01:43:52.632Z,100.00
2019-05-03T01:46:22.842Z,100.00
2019-05-03T01:49:14.138Z,100.00
2019-05-03T01:52:02.223Z,100.00
2019-05-03T01:54:32.180Z,100.00
2019-05-03T01:57:02.452Z,100.00
2019-05-03T01:59:32.128Z,100.00
2019-05-03T02:02:32.681Z,100.00
2019-05-03T02:05:16.170Z,100.00
2019-05-03T02:07:45.337Z,100.00
2019-05-03T02:10:14.708Z,100.00
2019-05-03T02:12:43.888Z,100.00
2019-05-03T02:15:13.070Z,100.00
2019-05-03T02:17:42.664Z,100.00
2019-05-03T02:20:12.658Z,100.00
2019-05-03T02:22:42.816Z,100.00
2019-05-03T02:25:12.534Z,100.00
2019-05-03T02:27:42.290Z,100.00
2019-05-03T02:30:14.140Z,100.00
2019-05-03T02:32:44.182Z,100.00
2019-05-03T02:35:14.162Z,100.00
2019-05-03T02:37:45.229Z,100.00
2019-05-03T02:40:14.610Z,100.00
2019-05-03T02:42:46.582Z,100.00
2019-05-03T02:45:25.721Z,100.00
2019-05-03T02:48:06.003Z,100.00
2019-05-03T02:50:36.080Z,100.00
2019-05-03T02:53:05.837Z,100.00
2019-05-03T02:55:36.405Z,100.00
2019-05-03T02:58:05.866Z,100.00
2019-05-03T03:01:00.196Z,100.00
2019-05-03T03:03:30.279Z,100.00
2019-05-03T03:06:01.904Z,100.00
2019-05-03T03:08:33.345Z,100.00
2019-05-03T03:11:06.363Z,100.00
2019-05-03T03:13:38.528Z,100.00
2019-05-03T03:16:08.958Z,100.00
2019-05-03T03:18:40.173Z,100.00
2019-05-03T03:21:16.143Z,100.00
2019-05-03T03:23:57.209Z,100.00
2019-05-03T03:26:37.354Z,100.00
2019-05-03T03:29:06.019Z,100.00
2019-05-03T03:31:58.511Z,100.00
2019-05-03T03:34:32.222Z,100.00
2019-05-03T03:37:06.470Z,100.00
2019-05-03T03:39:32.861Z,100.00
2019-05-03T03:42:05.271Z,100.00
2019-05-03T03:44:36.370Z,100.00
2019-05-03T03:47:05.994Z,100.00
2019-05-03T03:49:36.761Z,100.00
2019-05-03T03:52:07.376Z,100.00
2019-05-03T03:54:39.298Z,100.00
2019-05-03T03:57:10.347Z,100.00
2019-05-03T03:59:39.602Z,100.00
2019-05-03T04:02:08.763Z,100.00
2019-05-03T04:04:38.236Z,98.50
2019-05-03T04:07:07.913Z,97.74
2019-05-03T04:09:37.312Z,95.20
2019-05-03T04:12:08.035Z,93.32
2019-05-03T04:14:56.301Z,93.10
2019-05-03T04:17:57.153Z,91.41
2019-05-03T04:20:30.427Z,91.66
2019-05-03T04:22:59.985Z,90.72
2019-05-03T04:25:29.396Z,91.23
2019-05-03T04:27:58.564Z,89.94
2019-05-03T04:30:27.835Z,90.21
2019-05-03T04:32:57.162Z,90.75
2019-05-03T04:35:26.955Z,90.45
2019-05-03T04:37:56.339Z,91.05
2019-05-03T04:40:26.178Z,93.29
2019-05-03T04:42:56.048Z,90.69
2019-05-03T04:45:25.813Z,90.25
2019-05-03T04:47:55.962Z,91.12
2019-05-03T04:50:26.028Z,90.94
2019-05-03T04:52:56.580Z,91.45
2019-05-03T04:55:26.823Z,90.83
2019-05-03T04:57:56.429Z,91.02
2019-05-03T05:00:26.054Z,90.56
2019-05-03T05:02:55.690Z,91.21
2019-05-03T05:05:26.142Z,90.93
2019-05-03T05:07:55.981Z,91.89
2019-05-03T05:10:26.255Z,91.14
2019-05-03T05:12:55.697Z,91.62
2019-05-03T05:15:26.411Z,90.93
2019-05-03T05:18:15.974Z,91.86
2019-05-03T05:20:55.485Z,91.90
2019-05-03T05:23:25.100Z,91.61
2019-05-03T05:26:14.491Z,91.02
2019-05-03T05:28:48.701Z,90.90
2019-05-03T05:31:17.896Z,91.51
2019-05-03T05:33:47.179Z,90.60
2019-05-03T05:36:16.526Z,89.99
2019-05-03T05:38:45.777Z,90.53
2019-05-03T05:41:15.614Z,90.19
2019-05-03T05:43:45.132Z,90.09
2019-05-03T05:46:14.783Z,89.87
2019-05-03T05:48:48.085Z,89.33
2019-05-03T05:51:17.265Z,88.85
2019-05-03T05:53:46.423Z,88.37
2019-05-03T05:56:26.674Z,89.27
2019-05-03T05:59:24.818Z,89.84
2019-05-03T06:01:57.972Z,88.40
2019-05-03T06:04:27.131Z,88.38
2019-05-03T06:07:14.870Z,87.03
2019-05-03T06:09:50.970Z,86.12
2019-05-03T06:12:32.567Z,85.24
2019-05-03T06:15:06.922Z,85.72
2019-05-03T06:18:00.901Z,84.71
2019-05-03T06:20:48.291Z,84.44
2019-05-03T06:23:24.752Z,83.13
2019-05-03T06:25:54.559Z,80.66
2019-05-03T06:28:29.918Z,81.04
2019-05-03T06:31:19.630Z,80.05
2019-05-03T06:33:48.836Z,77.76
2019-05-03T06:36:18.119Z,75.52
2019-05-03T06:38:47.273Z,75.20
2019-05-03T06:41:16.501Z,75.00
2019-05-03T06:43:48.776Z,73.17
2019-05-03T06:46:18.346Z,70.98
2019-05-03T06:48:47.510Z,73.09
2019-05-03T06:51:20.003Z,72.87
2019-05-03T06:53:50.644Z,72.83
2019-05-03T06:56:25.124Z,69.54
2019-05-03T06:58:50.899Z,66.61
2019-05-03T07:01:29.713Z,63.80
2019-05-03T07:04:26.712Z,64.23
2019-05-03T07:07:06.123Z,64.94
2019-05-03T07:10:00.447Z,66.79
2019-05-03T07:12:48.543Z,65.24
2019-05-03T07:15:17.759Z,66.79
2019-05-03T07:17:46.973Z,66.67
2019-05-03T07:20:16.144Z,67.56
2019-05-03T07:22:45.267Z,67.31
2019-05-03T07:25:14.953Z,66.37
2019-05-03T07:27:45.214Z,66.98
2019-05-03T07:30:15.664Z,67.85
2019-05-03T07:32:46.812Z,69.00
2019-05-03T07:35:15.985Z,69.02
2019-05-03T07:37:45.186Z,69.75
2019-05-03T07:40:14.889Z,70.61
2019-05-03T07:42:44.893Z,67.99
2019-05-03T07:45:14.978Z,65.65
2019-05-03T07:47:45.216Z,64.37
2019-05-03T07:50:15.273Z,63.31
2019-05-03T07:52:45.090Z,63.38
2019-05-03T07:55:14.947Z,65.03
2019-05-03T07:57:51.796Z,67.55
2019-05-03T08:00:25.383Z,65.89
2019-05-03T08:02:54.978Z,64.82
2019-05-03T08:05:24.666Z,63.36
2019-05-03T08:07:55.394Z,65.15
2019-05-03T08:10:25.646Z,65.38
2019-05-03T08:12:55.094Z,62.45
2019-05-03T08:15:24.669Z,61.79
2019-05-03T08:17:55.441Z,61.54
2019-05-03T08:20:24.977Z,61.94
2019-05-03T08:22:54.731Z,59.65
2019-05-03T08:25:24.971Z,56.16
2019-05-03T08:27:54.940Z,55.57
2019-05-03T08:30:30.165Z,56.63
2019-05-03T08:33:21.138Z,57.49
2019-05-03T08:35:50.490Z,58.31
2019-05-03T08:38:19.883Z,52.68
2019-05-03T08:40:49.507Z,50.01
2019-05-03T08:43:18.652Z,47.40
2019-05-03T08:45:47.822Z,50.60
2019-05-03T08:48:17.115Z,53.12
2019-05-03T08:50:46.293Z,54.35
2019-05-03T08:53:15.845Z,53.92
2019-05-03T08:55:45.116Z,54.16
2019-05-03T08:58:15.490Z,57.96
2019-05-03T09:00:45.465Z,59.39
2019-05-03T09:03:14.869Z,60.26
2019-05-03T09:05:45.847Z,60.16
2019-05-03T09:08:15.746Z,60.27
2019-05-03T09:10:54.523Z,59.18
2019-05-03T09:13:25.115Z,58.34
2019-05-03T09:15:55.285Z,59.43
2019-05-03T09:18:25.805Z,59.71
2019-05-03T09:20:55.825Z,59.62
2019-05-03T09:23:25.982Z,59.54
2019-05-03T09:25:55.321Z,59.53
2019-05-03T09:28:26.434Z,60.37
2019-05-03T09:30:55.391Z,61.23
2019-05-03T09:33:24.980Z,62.00
2019-05-03T09:35:54.963Z,61.21
2019-05-03T09:38:25.652Z,59.39
2019-05-03T09:40:55.071Z,60.26
2019-05-03T09:43:25.196Z,60.75
2019-05-03T09:45:54.767Z,60.26
2019-05-03T09:48:25.484Z,59.62
2019-05-03T09:50:55.630Z,59.54
2019-05-03T09:53:27.083Z,57.52
2019-05-03T09:55:56.279Z,58.18
2019-05-03T09:58:26.329Z,55.95
2019-05-03T10:00:55.749Z,49.85
2019-05-03T10:03:24.922Z,51.45
2019-05-03T10:05:55.348Z,53.22
2019-05-03T10:08:25.442Z,52.75
2019-05-03T10:11:10.238Z,54.34
2019-05-03T10:13:41.808Z,54.06
2019-05-03T10:16:10.593Z,52.75
2019-05-03T10:18:39.868Z,49.92
2019-05-03T10:21:09.047Z,49.48
2019-05-03T10:23:41.561Z,51.05
2019-05-03T10:26:10.969Z,52.50
2019-05-03T10:28:48.660Z,51.85
2019-05-03T10:31:18.120Z,47.81
2019-05-03T10:34:01.930Z,45.60
2019-05-03T10:36:31.135Z,44.86
2019-05-03T10:39:00.329Z,45.55
2019-05-03T10:41:29.507Z,46.60
2019-05-03T10:43:58.670Z,47.53
2019-05-03T10:46:27.864Z,43.56
2019-05-03T10:48:57.079Z,42.00
2019-05-03T10:51:28.434Z,43.42
2019-05-03T10:53:59.781Z,44.45
2019-05-03T10:56:35.904Z,42.57
2019-05-03T10:59:06.961Z,42.63
2019-05-03T11:01:55.136Z,44.98
2019-05-03T11:04:25.005Z,43.20
2019-05-03T11:06:55.083Z,42.20
2019-05-03T11:09:25.921Z,42.82
2019-05-03T11:11:55.685Z,43.36
2019-05-03T11:14:25.503Z,42.29
2019-05-03T11:16:55.359Z,45.04
2019-05-03T11:19:25.416Z,43.45
2019-05-03T11:21:54.981Z,44.10
2019-05-03T11:24:27.318Z,41.31
2019-05-03T11:26:59.914Z,40.11
2019-05-03T11:29:27.772Z,42.74
2019-05-03T11:32:10.001Z,44.11
2019-05-03T11:34:55.425Z,47.02
2019-05-03T11:37:49.656Z,47.24
2019-05-03T11:40:19.002Z,45.13
2019-05-03T11:42:48.842Z,44.92
2019-05-03T11:45:18.259Z,46.45
2019-05-03T11:47:47.443Z,46.83
2019-05-03T11:50:16.755Z,44.76
2019-05-03T11:52:47.234Z,45.94
2019-05-03T11:55:16.737Z,47.24
2019-05-03T11:57:45.970Z,45.57
2019-05-03T12:00:19.852Z,45.37
2019-05-03T12:03:10.985Z,44.02
2019-05-03T12:05:41.577Z,44.21
2019-05-03T12:08:10.761Z,44.94
2019-05-03T12:10:51.981Z,45.02
2019-05-03T12:13:24.666Z,46.40
2019-05-03T12:15:55.261Z,47.38
2019-05-03T12:18:25.398Z,49.70
2019-05-03T12:20:56.667Z,48.38
2019-05-03T12:23:31.588Z,49.14
2019-05-03T12:26:00.146Z,47.91
2019-05-03T12:28:29.738Z,47.78
2019-05-03T12:30:58.881Z,49.09
2019-05-03T12:33:28.268Z,48.78
2019-05-03T12:35:57.432Z,48.61
2019-05-03T12:38:26.708Z,47.71
2019-05-03T12:40:55.914Z,48.69
2019-05-03T12:43:25.683Z,50.46
2019-05-03T12:45:54.944Z,50.40
2019-05-03T12:48:24.630Z,49.82
2019-05-03T12:50:54.215Z,51.83
2019-05-03T12:53:24.653Z,51.95
2019-05-03T12:55:54.000Z,52.53
2019-05-03T12:58:25.448Z,53.56
2019-05-03T13:01:12.117Z,53.56
2019-05-03T13:03:55.338Z,53.42
2019-05-03T13:06:25.471Z,54.28
2019-05-03T13:08:54.896Z,54.94
2019-05-03T13:11:25.141Z,55.84
2019-05-03T13:13:55.680Z,55.30
2019-05-03T13:16:24.861Z,54.81
2019-05-03T13:18:55.270Z,54.21
2019-05-03T13:21:25.233Z,54.23
2019-05-03T13:23:54.916Z,53.85
2019-05-03T13:26:25.446Z,53.99
2019-05-03T13:28:55.367Z,54.26
2019-05-03T13:31:25.175Z,53.90
2019-05-03T13:33:54.937Z,53.82
2019-05-03T13:36:25.286Z,53.54
2019-05-03T13:39:09.892Z,53.56
2019-05-03T13:41:25.913Z,53.69
2019-05-03T13:43:55.229Z,55.12
2019-05-03T13:46:24.780Z,55.86
2019-05-03T13:48:55.493Z,56.61
2019-05-03T13:51:25.319Z,57.52
2019-05-03T13:53:55.145Z,56.67
2019-05-03T13:56:24.728Z,55.52
2019-05-03T13:58:55.153Z,56.74
2019-05-03T14:01:25.249Z,55.67
2019-05-03T14:03:54.667Z,56.25
2019-05-03T14:06:24.633Z,56.32
2019-05-03T14:08:54.792Z,57.01
2019-05-03T14:11:25.389Z,57.16
2019-05-03T14:13:55.167Z,57.74
2019-05-03T14:16:24.630Z,58.44
2019-05-03T14:18:56.788Z,59.95
2019-05-03T14:21:31.864Z,63.27
2019-05-03T14:24:10.260Z,67.13
2019-05-03T14:26:40.619Z,68.50
2019-05-03T14:29:10.959Z,70.89
2019-05-03T14:31:40.185Z,71.43
2019-05-03T14:34:09.392Z,70.20
2019-05-03T14:36:39.556Z,71.58
2019-05-03T14:39:10.382Z,71.95
2019-05-03T14:41:39.704Z,73.45
2019-05-03T14:44:08.975Z,71.85
2019-05-03T14:46:38.640Z,70.49
2019-05-03T14:49:07.796Z,71.67
2019-05-03T14:51:37.322Z,71.23
2019-05-03T14:54:07.706Z,71.83
2019-05-03T14:56:48.217Z,71.85
2019-05-03T14:59:34.854Z,72.08
2019-05-03T15:02:42.576Z,71.24
2019-05-03T15:05:02.841Z,72.29
2019-05-03T15:07:32.140Z,71.21
2019-05-03T15:10:01.339Z,73.63
2019-05-03T15:12:30.584Z,72.27
2019-05-03T15:15:01.360Z,70.06
2019-05-03T15:17:30.696Z,67.16
2019-05-03T15:19:59.909Z,66.84
2019-05-03T15:22:29.125Z,67.22
2019-05-03T15:24:58.316Z,66.49
2019-05-03T15:27:27.830Z,66.70
2019-05-03T15:29:57.376Z,65.06
2019-05-03T15:32:26.589Z,65.75
2019-05-03T15:34:55.791Z,66.36
2019-05-03T15:37:25.557Z,64.37
2019-05-03T15:40:06.079Z,63.96
2019-05-03T15:42:35.332Z,62.55
2019-05-03T15:45:22.738Z,61.48
2019-05-03T15:48:10.706Z,60.88
2019-05-03T15:50:39.893Z,60.79
2019-05-03T15:53:09.126Z,59.93
2019-05-03T15:55:38.281Z,58.90
2019-05-03T15:58:07.584Z,59.15
2019-05-03T16:00:36.800Z,58.11
2019-05-03T16:03:10.470Z,57.88
2019-05-03T16:05:37.272Z,59.69
2019-05-03T16:08:06.481Z,60.55
2019-05-03T16:10:37.219Z,59.31
2019-05-03T16:13:06.616Z,57.66
2019-05-03T16:15:35.897Z,56.47
2019-05-03T16:18:05.482Z,56.47
2019-05-03T16:20:39.155Z,56.24
2019-05-03T16:23:05.575Z,56.55
2019-05-03T16:25:35.590Z,57.38
2019-05-03T16:28:09.770Z,59.07
2019-05-03T16:30:50.978Z,59.07
2019-05-03T16:33:27.038Z,59.54
2019-05-03T16:35:51.151Z,60.71
2019-05-03T16:38:20.367Z,60.79
2019-05-03T16:40:50.008Z,61.38
2019-05-03T16:43:19.392Z,62.24
2019-05-03T16:45:51.055Z,63.27
2019-05-03T16:48:20.409Z,62.89
2019-05-03T16:50:49.758Z,61.47
2019-05-03T16:53:18.940Z,61.46
2019-05-03T16:55:48.181Z,62.11
2019-05-03T16:58:17.330Z,62.30
2019-05-03T17:00:46.631Z,61.75
2019-05-03T17:03:17.452Z,62.06
2019-05-03T17:06:06.089Z,62.57
2019-05-03T17:08:57.237Z,63.53
2019-05-03T17:11:26.854Z,62.47
2019-05-03T17:13:57.671Z,63.11
2019-05-03T17:16:26.912Z,63.36
2019-05-03T17:18:56.208Z,63.55
2019-05-03T17:21:25.628Z,63.88
2019-05-03T17:23:55.065Z,63.48
2019-05-03T17:26:24.896Z,63.96
2019-05-03T17:28:55.337Z,63.57
2019-05-03T17:31:24.679Z,63.07
2019-05-03T17:33:56.687Z,63.24
2019-05-03T17:36:25.183Z,62.65
2019-05-03T17:38:56.042Z,62.37
2019-05-03T17:41:45.293Z,63.79
2019-05-03T17:44:31.663Z,62.39
2019-05-03T17:47:01.318Z,61.82
2019-05-03T17:49:30.684Z,61.66
2019-05-03T17:52:21.809Z,61.59
2019-05-03T17:55:10.072Z,62.07
2019-05-03T17:58:15.106Z,62.29
2019-05-03T18:01:06.395Z,61.96
2019-05-03T18:03:38.947Z,61.91
2019-05-03T18:06:29.953Z,61.54
2019-05-03T18:09:16.229Z,60.97
2019-05-03T18:11:47.832Z,61.43
2019-05-03T18:14:17.176Z,61.74
2019-05-03T18:16:46.385Z,60.79
2019-05-03T18:19:15.608Z,61.44
2019-05-03T18:21:44.811Z,61.81
2019-05-03T18:24:15.355Z,62.44
2019-05-03T18:26:44.635Z,62.96
2019-05-03T18:29:14.704Z,63.66
2019-05-03T18:31:44.642Z,64.40
2019-05-03T18:34:19.696Z,64.36
2019-05-03T18:36:45.078Z,64.69
2019-05-03T18:39:14.847Z,65.57
2019-05-03T18:41:45.204Z,65.68
2019-05-03T18:44:39.562Z,66.00
2019-05-03T18:47:11.948Z,66.27
2019-05-03T18:49:41.243Z,67.34
2019-05-03T18:52:10.592Z,67.77
2019-05-03T18:54:39.792Z,69.21
2019-05-03T18:57:08.991Z,69.82
2019-05-03T18:59:38.280Z,70.78
2019-05-03T19:02:07.743Z,71.93
2019-05-03T19:04:45.215Z,73.04
2019-05-03T19:07:46.189Z,74.46
2019-05-03T19:10:24.806Z,76.26
2019-05-03T19:13:14.850Z,78.16
2019-05-03T19:15:44.256Z,78.86
2019-05-03T19:18:38.795Z,79.59
2019-05-03T19:21:08.076Z,79.93
2019-05-03T19:23:37.445Z,81.03
2019-05-03T19:26:06.694Z,82.45
2019-05-03T19:28:36.070Z,83.40
2019-05-03T19:31:05.609Z,84.32
2019-05-03T19:33:37.210Z,84.66
2019-05-03T19:36:06.933Z,84.37
2019-05-03T19:38:36.273Z,84.56
2019-05-03T19:41:05.484Z,84.49
2019-05-03T19:43:35.584Z,85.65
2019-05-03T19:46:07.397Z,86.00
2019-05-03T19:48:36.408Z,86.90
2019-05-03T19:51:05.906Z,86.92
2019-05-03T19:53:55.073Z,87.55
2019-05-03T19:56:25.576Z,86.03
2019-05-03T19:58:59.886Z,86.08
2019-05-03T20:01:57.043Z,87.47
2019-05-03T20:04:34.351Z,87.57
2019-05-03T20:07:25.792Z,86.81
2019-05-03T20:09:55.105Z,86.82
2019-05-03T20:12:24.674Z,87.15
2019-05-03T20:14:54.626Z,87.66
2019-05-03T20:17:23.931Z,88.20
2019-05-03T20:19:54.438Z,88.44
2019-05-03T20:22:24.480Z,88.60
2019-05-03T20:24:55.263Z,88.83
2019-05-03T20:27:24.818Z,88.21
2019-05-03T20:29:55.470Z,87.48
2019-05-03T20:32:25.227Z,87.16
2019-05-03T20:34:55.123Z,87.95
2019-05-03T20:37:25.125Z,88.76
2019-05-03T20:39:54.595Z,88.87
2019-05-03T20:42:41.434Z,89.46
2019-05-03T20:45:16.109Z,90.11
2019-05-03T20:47:54.799Z,90.55
2019-05-03T20:50:24.755Z,91.01
2019-05-03T20:52:54.984Z,90.76
2019-05-03T20:55:25.669Z,90.29
2019-05-03T20:57:55.082Z,89.81
2019-05-03T21:00:25.882Z,89.90
2019-05-03T21:02:57.320Z,90.61
2019-05-03T21:05:30.688Z,91.35
2019-05-03T21:07:56.996Z,91.92
2019-05-03T21:10:26.384Z,92.15
2019-05-03T21:12:55.708Z,91.80
2019-05-03T21:15:32.789Z,92.43
2019-05-03T21:18:25.126Z,92.89
2019-05-03T21:21:03.378Z,93.24
2019-05-03T21:23:35.930Z,93.14
2019-05-03T21:26:12.917Z,93.28
2019-05-03T21:28:39.738Z,93.56
2019-05-03T21:31:08.946Z,94.03
2019-05-03T21:33:38.175Z,94.21
2019-05-03T21:36:07.553Z,94.33
2019-05-03T21:38:37.066Z,94.54
2019-05-03T21:41:06.595Z,93.84
2019-05-03T21:43:35.800Z,93.19
2019-05-03T21:46:15.044Z,92.59
2019-05-03T21:48:52.753Z,91.57
2019-05-03T21:51:21.935Z,91.44
2019-05-03T21:53:51.104Z,91.67
2019-05-03T21:56:20.586Z,93.04
2019-05-03T21:58:49.976Z,94.28
2019-05-03T22:01:19.381Z,92.63
2019-05-03T22:03:48.633Z,92.34
2019-05-03T22:06:17.823Z,92.42
2019-05-03T22:08:47.300Z,92.48
2019-05-03T22:11:16.446Z,92.71
2019-05-03T22:13:47.365Z,92.29
2019-05-03T22:16:34.430Z,92.75
2019-05-03T22:19:03.374Z,93.42
2019-05-03T22:21:38.256Z,93.14
2019-05-03T22:24:25.661Z,92.81
2019-05-03T22:26:57.887Z,93.30
2019-05-03T22:29:27.060Z,93.21
2019-05-03T22:31:56.334Z,92.98
2019-05-03T22:34:25.945Z,93.04
2019-05-03T22:36:55.493Z,93.43
2019-05-03T22:39:25.164Z,93.43
2019-05-03T22:41:54.620Z,93.87
2019-05-03T22:44:25.299Z,93.79
2019-05-03T22:46:55.153Z,93.98
2019-05-03T22:49:26.041Z,94.28
2019-05-03T22:51:55.499Z,94.20
2019-05-03T22:54:24.998Z,93.86
2019-05-03T22:56:55.446Z,93.86
2019-05-03T22:59:25.941Z,93.97
2019-05-03T23:01:55.602Z,94.86
2019-05-03T23:04:25.412Z,95.13
2019-05-03T23:06:55.621Z,95.24
2019-05-03T23:09:25.130Z,94.81
2019-05-03T23:11:55.226Z,94.39
2019-05-03T23:14:25.472Z,93.57
2019-05-03T23:16:55.098Z,93.73
2019-05-03T23:19:24.437Z,93.58
2019-05-03T23:22:21.930Z,93.03
2019-05-03T23:24:51.083Z,92.72
2019-05-03T23:27:20.298Z,92.80
2019-05-03T23:29:49.431Z,92.62
2019-05-03T23:32:19.688Z,92.65
2019-05-03T23:34:48.883Z,93.23
2019-05-03T23:37:18.050Z,93.78
2019-05-03T23:39:47.197Z,93.79
2019-05-03T23:42:16.653Z,94.52
2019-05-03T23:44:45.829Z,94.83
2019-05-03T23:47:25.748Z,94.99
2019-05-03T23:49:55.467Z,94.61
2019-05-03T23:52:35.545Z,94.19
2019-05-03T23:55:14.694Z,93.84
2019-05-03T23:57:44.653Z,94.42
